createdAt,value
2019-01-18T00:00:23.116Z,2.67
2019-01-18T00:02:54.410Z,1.93
2019-01-18T00:05:25.703Z,1.87
2019-01-18T00:07:56.999Z,2.47
2019-01-18T00:10:28.658Z,2.10
2019-01-18T00:12:59.972Z,3.00
2019-01-18T00:15:31.243Z,2.40
2019-01-18T00:18:02.634Z,2.50
2019-01-18T00:20:33.900Z,2.20
2019-01-18T00:23:05.186Z,2.00
2019-01-18T00:25:36.507Z,2.10
2019-01-18T00:28:07.784Z,2.20
2019-01-18T00:30:39.070Z,1.83
2019-01-18T00:33:10.369Z,2.03
2019-01-18T00:35:42.000Z,1.87
2019-01-18T00:38:13.295Z,1.80
2019-01-18T00:40:44.585Z,1.83
2019-01-18T00:43:15.900Z,2.03
2019-01-18T00:45:47.186Z,2.03
2019-01-18T00:48:18.850Z,2.07
2019-01-18T00:50:50.139Z,1.60
2019-01-18T00:53:21.437Z,2.00
2019-01-18T00:55:53.211Z,1.77
2019-01-18T00:58:24.502Z,2.47
2019-01-18T01:00:55.819Z,2.40
2019-01-18T01:03:27.105Z,1.77
2019-01-18T01:05:58.729Z,2.37
2019-01-18T01:08:30.083Z,1.80
2019-01-18T01:11:01.389Z,1.80
2019-01-18T01:13:32.683Z,1.83
2019-01-18T01:16:04.035Z,1.93
2019-01-18T01:18:35.330Z,1.60
2019-01-18T01:21:06.625Z,2.13
2019-01-18T01:23:37.930Z,1.50
2019-01-18T01:26:09.218Z,1.50
2019-01-18T01:28:40.523Z,1.53
2019-01-18T01:31:11.813Z,1.47
2019-01-18T01:33:43.497Z,1.80
2019-01-18T01:36:14.861Z,1.43
2019-01-18T01:38:46.171Z,1.53
2019-01-18T01:41:17.627Z,1.47
2019-01-18T01:43:49.207Z,1.33
2019-01-18T01:46:20.763Z,1.43
2019-01-18T01:48:52.239Z,1.73
2019-01-18T01:51:23.693Z,1.53
2019-01-18T01:53:55.271Z,1.93
2019-01-18T01:56:26.642Z,1.30
2019-01-18T01:58:58.413Z,1.60
2019-01-18T02:01:29.778Z,1.60
2019-01-18T02:04:01.165Z,1.80
2019-01-18T02:06:32.522Z,1.70
2019-01-18T02:09:05.516Z,1.40
2019-01-18T02:11:36.819Z,1.40
2019-01-18T02:14:08.133Z,1.57
2019-01-18T02:16:39.438Z,2.00
2019-01-18T02:19:11.120Z,1.80
2019-01-18T02:21:42.424Z,1.87
2019-01-18T02:24:13.717Z,1.83
2019-01-18T02:26:45.019Z,1.90
2019-01-18T02:29:16.318Z,1.83
2019-01-18T02:31:47.622Z,1.90
2019-01-18T02:34:18.910Z,1.80
2019-01-18T02:36:50.278Z,1.77
2019-01-18T02:39:21.581Z,2.00
2019-01-18T02:41:52.935Z,2.03
2019-01-18T02:44:24.241Z,2.00
2019-01-18T02:46:55.534Z,1.57
2019-01-18T02:49:26.828Z,1.50
2019-01-18T02:51:58.668Z,1.70
2019-01-18T02:54:30.704Z,1.60
2019-01-18T02:57:02.284Z,1.77
2019-01-18T02:59:33.575Z,1.50
2019-01-18T03:02:05.236Z,1.60
2019-01-18T03:04:36.555Z,1.90
2019-01-18T03:07:07.844Z,1.90
2019-01-18T03:09:39.145Z,1.43
2019-01-18T03:12:10.441Z,1.70
2019-01-18T03:14:41.741Z,1.60
2019-01-18T03:17:13.304Z,1.67
2019-01-18T03:19:44.927Z,1.60
2019-01-18T03:22:16.308Z,1.60
2019-01-18T03:24:47.591Z,1.50
2019-01-18T03:27:18.895Z,1.87
2019-01-18T03:29:50.186Z,1.80
2019-01-18T03:32:21.505Z,1.40
2019-01-18T03:34:52.787Z,1.63
2019-01-18T03:37:24.260Z,1.53
2019-01-18T03:40:16.228Z,2.00
2019-01-18T03:42:48.462Z,2.03
2019-01-18T03:45:20.597Z,1.77
2019-01-18T03:47:51.915Z,1.93
2019-01-18T03:50:26.146Z,1.40
2019-01-18T03:52:57.464Z,1.90
2019-01-18T03:55:28.755Z,2.07
2019-01-18T03:58:00.358Z,1.40
2019-01-18T04:00:31.661Z,1.70
2019-01-18T04:03:02.946Z,1.90
2019-01-18T04:05:34.480Z,2.33
2019-01-18T04:08:05.767Z,2.10
2019-01-18T04:10:37.072Z,1.77
2019-01-18T04:13:08.384Z,2.23
2019-01-18T04:15:39.660Z,1.80
2019-01-18T04:18:10.955Z,2.17
2019-01-18T04:20:42.238Z,1.73
2019-01-18T04:23:13.554Z,1.90
2019-01-18T04:25:44.984Z,2.00
2019-01-18T04:28:16.281Z,1.83
2019-01-18T04:30:47.596Z,2.33
2019-01-18T04:33:18.890Z,1.80
2019-01-18T04:35:50.175Z,1.63
2019-01-18T04:38:21.540Z,2.00
2019-01-18T04:40:53.114Z,2.10
2019-01-18T04:43:24.418Z,1.60
2019-01-18T04:45:55.729Z,2.00
2019-01-18T04:48:27.352Z,1.87
2019-01-18T04:50:59.011Z,1.70
2019-01-18T04:53:30.311Z,1.53
2019-01-18T04:56:01.611Z,2.00
2019-01-18T04:58:32.972Z,1.70
2019-01-18T05:01:04.275Z,2.00
2019-01-18T05:03:35.561Z,1.93
2019-01-18T05:06:06.884Z,1.70
2019-01-18T05:08:38.177Z,1.80
2019-01-18T05:11:09.477Z,2.00
2019-01-18T05:13:40.958Z,1.77
2019-01-18T05:16:12.726Z,2.03
2019-01-18T05:18:44.040Z,2.30
2019-01-18T05:21:15.780Z,2.10
2019-01-18T05:23:47.073Z,2.50
2019-01-18T05:26:18.501Z,2.20
2019-01-18T05:28:50.073Z,2.13
2019-01-18T05:31:21.448Z,1.90
2019-01-18T05:33:52.733Z,2.20
2019-01-18T05:36:24.034Z,2.20
2019-01-18T05:38:55.493Z,2.00
2019-01-18T05:41:29.549Z,1.90
2019-01-18T05:44:00.835Z,2.50
2019-01-18T05:46:32.141Z,2.00
2019-01-18T05:49:03.454Z,2.00
2019-01-18T05:51:34.744Z,2.20
2019-01-18T05:54:06.032Z,2.00
2019-01-18T05:56:37.357Z,2.10
2019-01-18T05:59:08.669Z,2.40
2019-01-18T06:01:40.036Z,2.10
2019-01-18T06:04:11.320Z,1.80
2019-01-18T06:06:42.894Z,2.23
2019-01-18T06:09:14.210Z,2.30
2019-01-18T06:11:45.511Z,2.50
2019-01-18T06:14:17.121Z,2.50
2019-01-18T06:16:48.773Z,2.20
2019-01-18T06:19:20.065Z,2.30
2019-01-18T06:21:51.363Z,2.80
2019-01-18T06:24:22.680Z,2.40
2019-01-18T06:26:53.989Z,2.60
2019-01-18T06:29:25.313Z,2.57
2019-01-18T06:31:56.603Z,2.90
2019-01-18T06:34:27.886Z,2.63
2019-01-18T06:36:59.205Z,2.60
2019-01-18T06:39:30.491Z,3.53
2019-01-18T06:42:01.810Z,3.23
2019-01-18T06:44:33.109Z,4.63
2019-01-18T06:47:04.386Z,2.53
2019-01-18T06:49:35.685Z,2.77
2019-01-18T06:52:06.978Z,2.47
2019-01-18T06:54:38.598Z,2.70
2019-01-18T06:57:09.905Z,2.60
2019-01-18T06:59:41.193Z,3.33
2019-01-18T07:02:12.488Z,3.13
2019-01-18T07:04:44.844Z,3.30
2019-01-18T07:07:16.166Z,3.53
2019-01-18T07:09:47.435Z,3.03
2019-01-18T07:12:18.751Z,2.70
2019-01-18T07:14:50.063Z,3.30
2019-01-18T07:17:21.669Z,3.00
2019-01-18T07:19:52.984Z,3.17
2019-01-18T07:22:24.378Z,2.70
2019-01-18T07:24:55.671Z,2.93
2019-01-18T07:27:27.027Z,3.37
2019-01-18T07:29:58.406Z,3.87
2019-01-18T07:32:29.712Z,3.80
2019-01-18T07:35:01.484Z,3.30
2019-01-18T07:37:33.058Z,2.43
2019-01-18T07:40:07.255Z,2.63
2019-01-18T07:42:38.556Z,2.90
2019-01-18T07:45:20.403Z,2.60
2019-01-18T07:47:51.826Z,3.37
2019-01-18T07:50:23.098Z,3.23
2019-01-18T07:52:54.694Z,3.20
2019-01-18T07:55:25.966Z,3.57
2019-01-18T07:57:57.285Z,3.40
2019-01-18T08:00:30.600Z,3.60
2019-01-18T08:03:01.884Z,2.77
2019-01-18T08:05:33.282Z,3.40
2019-01-18T08:08:04.621Z,2.63
2019-01-18T08:10:35.989Z,2.50
2019-01-18T08:13:08.019Z,2.63
2019-01-18T08:15:39.310Z,2.70
2019-01-18T08:18:10.607Z,2.83
2019-01-18T08:20:41.902Z,2.57
2019-01-18T08:23:13.293Z,2.50
2019-01-18T08:25:44.896Z,3.03
2019-01-18T08:28:16.248Z,3.30
2019-01-18T08:30:47.546Z,2.80
2019-01-18T08:33:18.841Z,2.53
2019-01-18T08:35:50.280Z,3.20
2019-01-18T08:38:21.576Z,2.67
2019-01-18T08:40:52.872Z,2.57
2019-01-18T08:43:24.466Z,2.63
2019-01-18T08:45:55.779Z,2.70
2019-01-18T08:48:27.045Z,2.60
2019-01-18T08:50:58.450Z,2.77
2019-01-18T08:53:29.739Z,2.97
2019-01-18T08:56:01.194Z,3.67
2019-01-18T08:58:32.459Z,3.10
2019-01-18T09:01:04.051Z,3.40
2019-01-18T09:03:35.401Z,3.43
2019-01-18T09:06:06.699Z,3.70
2019-01-18T09:08:38.000Z,4.00
2019-01-18T09:11:09.277Z,3.63
2019-01-18T09:13:40.580Z,3.20
2019-01-18T09:16:12.134Z,3.53
2019-01-18T09:18:43.542Z,3.40
2019-01-18T09:21:14.832Z,3.40
2019-01-18T09:23:46.165Z,3.03
2019-01-18T09:26:17.721Z,3.20
2019-01-18T09:28:49.068Z,3.33
2019-01-18T09:31:20.619Z,3.20
2019-01-18T09:33:52.169Z,5.03
2019-01-18T09:36:23.529Z,3.33
2019-01-18T09:38:54.895Z,3.13
2019-01-18T09:41:26.448Z,3.23
2019-01-18T09:43:57.760Z,3.27
2019-01-18T09:46:29.338Z,3.00
2019-01-18T09:49:00.632Z,2.63
2019-01-18T09:51:31.936Z,3.00
2019-01-18T09:54:03.235Z,3.10
2019-01-18T09:56:34.558Z,2.90
2019-01-18T09:59:05.858Z,2.80
2019-01-18T10:01:37.186Z,3.00
2019-01-18T10:04:08.620Z,3.57
2019-01-18T10:06:39.896Z,3.20
2019-01-18T10:09:11.499Z,2.80
2019-01-18T10:11:42.988Z,3.63
2019-01-18T10:14:14.371Z,3.70
2019-01-18T10:16:45.767Z,3.40
2019-01-18T10:19:17.085Z,3.10
2019-01-18T10:21:48.386Z,2.90
2019-01-18T10:24:21.032Z,3.17
2019-01-18T10:26:52.472Z,3.30
2019-01-18T10:29:28.176Z,3.63
2019-01-18T10:31:56.775Z,3.50
2019-01-18T10:34:28.945Z,4.17
2019-01-18T10:37:00.241Z,3.70
2019-01-18T10:39:31.567Z,3.17
2019-01-18T10:42:02.981Z,3.00
2019-01-18T10:44:34.344Z,3.63
2019-01-18T10:47:05.846Z,2.80
2019-01-18T10:49:37.139Z,2.30
2019-01-18T10:52:08.747Z,2.83
2019-01-18T10:54:40.147Z,2.40
2019-01-18T10:57:11.497Z,2.63
2019-01-18T10:59:42.780Z,2.87
2019-01-18T11:02:14.167Z,2.70
2019-01-18T11:04:45.459Z,3.00
2019-01-18T11:07:16.774Z,2.33
2019-01-18T11:09:48.079Z,2.90
2019-01-18T11:12:19.402Z,2.80
2019-01-18T11:14:50.686Z,2.90
2019-01-18T11:17:22.003Z,2.57
2019-01-18T11:19:53.514Z,2.50
2019-01-18T11:22:24.960Z,2.80
2019-01-18T11:24:56.572Z,2.70
2019-01-18T11:27:27.890Z,2.40
2019-01-18T11:29:59.202Z,3.13
2019-01-18T11:32:34.041Z,2.57
2019-01-18T11:35:06.517Z,2.43
2019-01-18T11:37:37.848Z,2.20
2019-01-18T11:40:16.111Z,2.13
2019-01-18T11:42:47.532Z,2.80
2019-01-18T11:45:21.911Z,2.77
2019-01-18T11:47:53.286Z,2.50
2019-01-18T11:50:28.788Z,2.53
2019-01-18T11:53:00.155Z,2.83
2019-01-18T11:55:31.735Z,2.60
2019-01-18T11:58:03.058Z,3.03
2019-01-18T12:00:37.841Z,2.70
2019-01-18T12:03:08.072Z,3.10
2019-01-18T12:05:39.404Z,3.77
2019-01-18T12:08:10.744Z,2.80
2019-01-18T12:10:42.046Z,3.10
2019-01-18T12:13:13.330Z,2.70
2019-01-18T12:15:44.690Z,2.73
2019-01-18T12:18:15.989Z,3.23
2019-01-18T12:20:47.309Z,2.93
2019-01-18T12:23:18.724Z,2.93
2019-01-18T12:25:50.072Z,2.70
2019-01-18T12:28:22.607Z,3.37
2019-01-18T12:30:54.131Z,3.27
2019-01-18T12:33:25.564Z,3.10
2019-01-18T12:35:57.057Z,3.07
2019-01-18T12:38:28.505Z,3.13
2019-01-18T12:41:00.223Z,3.20
2019-01-18T12:43:31.946Z,3.30
2019-01-18T12:46:03.310Z,3.10
2019-01-18T12:48:34.694Z,3.10
2019-01-18T12:51:06.000Z,2.80
2019-01-18T12:53:37.349Z,3.20
2019-01-18T12:56:08.624Z,3.13
2019-01-18T12:58:39.982Z,3.30
2019-01-18T13:01:11.524Z,3.47
2019-01-18T13:03:42.873Z,2.87
2019-01-18T13:06:14.710Z,3.30
2019-01-18T13:08:46.026Z,3.00
2019-01-18T13:11:17.347Z,2.80
2019-01-18T13:13:48.963Z,3.13
2019-01-18T13:16:22.359Z,3.73
2019-01-18T13:18:53.676Z,2.87
2019-01-18T13:21:24.987Z,2.97
2019-01-18T13:23:56.358Z,2.60
2019-01-18T13:26:30.551Z,3.53
2019-01-18T13:29:01.851Z,3.10
2019-01-18T13:31:33.198Z,3.23
2019-01-18T13:34:04.576Z,3.23
2019-01-18T13:36:35.867Z,2.70
2019-01-18T13:39:07.962Z,2.77
2019-01-18T13:41:39.289Z,3.07
2019-01-18T13:44:10.572Z,3.17
2019-01-18T13:46:42.230Z,3.63
2019-01-18T13:49:13.528Z,3.47
2019-01-18T13:51:46.271Z,3.27
2019-01-18T13:54:18.339Z,3.00
2019-01-18T13:56:49.661Z,3.57
2019-01-18T13:59:20.974Z,3.10
2019-01-18T14:01:52.646Z,3.50
2019-01-18T14:04:23.988Z,3.63
2019-01-18T14:06:55.315Z,3.53
2019-01-18T14:09:26.809Z,3.57
2019-01-18T14:11:58.171Z,3.50
2019-01-18T14:14:29.485Z,5.63
2019-01-18T14:17:00.862Z,3.67
2019-01-18T14:19:32.144Z,3.40
2019-01-18T14:22:03.494Z,4.17
2019-01-18T14:24:35.163Z,3.77
2019-01-18T14:27:06.475Z,3.37
2019-01-18T14:29:37.918Z,3.67
2019-01-18T14:32:09.219Z,3.43
2019-01-18T14:34:40.532Z,3.50
2019-01-18T14:37:12.115Z,3.47
2019-01-18T14:39:44.038Z,3.50
2019-01-18T14:42:15.450Z,2.93
2019-01-18T14:44:46.939Z,3.37
2019-01-18T14:47:18.267Z,3.40
2019-01-18T14:49:49.628Z,3.37
2019-01-18T14:52:20.981Z,3.20
2019-01-18T14:54:52.358Z,3.63
2019-01-18T14:57:23.840Z,3.10
2019-01-18T14:59:55.194Z,3.47
2019-01-18T15:02:26.796Z,3.20
2019-01-18T15:04:58.438Z,3.53
2019-01-18T15:07:30.124Z,4.37
2019-01-18T15:10:05.061Z,4.37
2019-01-18T15:12:34.549Z,4.13
2019-01-18T15:15:11.106Z,3.90
2019-01-18T15:17:43.255Z,4.07
2019-01-18T15:20:23.813Z,4.50
2019-01-18T15:22:55.109Z,4.10
2019-01-18T15:25:26.763Z,3.97
2019-01-18T15:27:58.054Z,4.23
2019-01-18T15:30:32.705Z,4.20
2019-01-18T15:33:09.143Z,5.40
2019-01-18T15:35:45.068Z,4.50
2019-01-18T15:38:19.320Z,4.23
2019-01-18T15:40:51.094Z,4.13
2019-01-18T15:43:23.118Z,4.80
2019-01-18T15:45:54.416Z,4.17
2019-01-18T15:48:25.704Z,4.13
2019-01-18T15:50:57.021Z,3.97
2019-01-18T15:53:28.329Z,4.63
2019-01-18T15:55:59.735Z,4.62
2019-01-18T15:58:31.033Z,5.17
2019-01-18T16:01:02.362Z,4.57
2019-01-18T16:03:34.117Z,3.90
2019-01-18T16:06:06.548Z,4.17
2019-01-18T16:08:37.839Z,6.20
2019-01-18T16:11:10.010Z,6.70
2019-01-18T16:13:41.358Z,5.40
2019-01-18T16:16:16.644Z,5.50
2019-01-18T16:18:48.055Z,4.87
2019-01-18T16:21:19.351Z,4.30
2019-01-18T16:23:51.243Z,5.47
2019-01-18T16:26:22.583Z,4.30
2019-01-18T16:28:53.893Z,4.60
2019-01-18T16:31:25.262Z,4.70
2019-01-18T16:33:58.294Z,4.97
2019-01-18T16:36:29.955Z,4.67
2019-01-18T16:39:01.341Z,5.53
2019-01-18T16:41:32.758Z,5.50
2019-01-18T16:44:04.030Z,6.13
2019-01-18T16:46:35.422Z,5.30
2019-01-18T16:49:06.813Z,6.03
2019-01-18T16:51:38.117Z,6.37
2019-01-18T16:54:09.691Z,6.80
2019-01-18T16:56:41.260Z,6.20
2019-01-18T16:59:12.562Z,6.07
2019-01-18T17:01:44.165Z,6.63
2019-01-18T17:04:15.492Z,6.63
2019-01-18T17:06:47.233Z,7.13
2019-01-18T17:09:18.628Z,7.10
2019-01-18T17:11:49.923Z,7.60
2019-01-18T17:14:21.538Z,7.87
2019-01-18T17:16:53.084Z,8.50
2019-01-18T17:19:24.657Z,7.90
2019-01-18T17:21:55.954Z,8.60
2019-01-18T17:24:27.324Z,9.23
2019-01-18T17:26:58.696Z,7.60
2019-01-18T17:29:30.345Z,8.23
2019-01-18T17:32:01.657Z,8.43
2019-01-18T17:34:35.175Z,7.87
2019-01-18T17:37:06.737Z,8.60
2019-01-18T17:39:42.982Z,7.77
2019-01-18T17:42:34.625Z,9.07
2019-01-18T17:45:43.397Z,8.90
2019-01-18T17:48:34.299Z,7.37
2019-01-18T17:51:34.627Z,8.63
2019-01-18T17:54:36.954Z,7.60
2019-01-18T17:57:24.742Z,7.83
2019-01-18T18:00:03.952Z,7.77
2019-01-18T18:03:18.051Z,7.93
2019-01-18T18:06:03.767Z,7.40
2019-01-18T18:08:45.898Z,7.90
2019-01-18T18:11:31.039Z,8.37
2019-01-18T18:14:17.402Z,8.23
2019-01-18T18:17:14.206Z,8.17
2019-01-18T18:20:21.439Z,7.80
2019-01-18T18:23:23.076Z,7.50
2019-01-18T18:26:09.096Z,6.83
2019-01-18T18:29:13.983Z,8.40
2019-01-18T18:32:27.620Z,8.33
2019-01-18T18:35:26.565Z,7.67
2019-01-18T18:38:17.522Z,9.67
2019-01-18T18:41:20.699Z,10.10
2019-01-18T18:44:25.653Z,9.63
2019-01-18T18:47:25.249Z,10.87
2019-01-18T18:50:16.171Z,8.27
2019-01-18T18:53:18.215Z,10.30
2019-01-18T18:56:00.067Z,9.43
2019-01-18T18:59:03.235Z,9.53
2019-01-18T19:01:55.831Z,8.67
2019-01-18T19:04:53.089Z,10.10
2019-01-18T19:07:46.864Z,9.23
2019-01-18T19:10:35.447Z,9.70
2019-01-18T19:13:27.728Z,9.33
2019-01-18T19:16:09.757Z,10.00
2019-01-18T19:19:00.361Z,9.03
2019-01-18T19:21:51.125Z,9.70
2019-01-18T19:24:39.455Z,9.17
2019-01-18T19:27:39.675Z,9.90
2019-01-18T19:30:36.278Z,8.70
2019-01-18T19:33:24.588Z,9.13
2019-01-18T19:36:24.692Z,10.00
2019-01-18T19:39:15.487Z,8.93
2019-01-18T19:42:09.991Z,10.47
2019-01-18T19:44:57.716Z,9.90
2019-01-18T19:47:33.907Z,10.73
2019-01-18T19:50:21.842Z,9.87
2019-01-18T19:53:15.845Z,10.63
2019-01-18T19:56:06.819Z,10.67
2019-01-18T19:58:48.261Z,9.97
2019-01-18T20:01:27.043Z,10.00
2019-01-18T20:04:32.908Z,11.73
2019-01-18T20:07:29.298Z,11.57
2019-01-18T20:10:29.327Z,11.73
2019-01-18T20:13:43.216Z,11.53
2019-01-18T20:16:46.060Z,12.07
2019-01-18T20:19:28.287Z,13.10
2019-01-18T20:22:13.136Z,12.57
2019-01-18T20:25:19.308Z,13.30
2019-01-18T20:28:26.962Z,12.77
2019-01-18T20:31:15.023Z,12.90
2019-01-18T20:34:08.968Z,15.37
2019-01-18T20:37:00.531Z,13.77
2019-01-18T20:40:12.786Z,14.10
2019-01-18T20:43:12.792Z,13.20
2019-01-18T20:46:06.769Z,15.37
2019-01-18T20:48:48.543Z,13.97
2019-01-18T20:51:33.706Z,13.07
2019-01-18T20:54:27.817Z,12.37
2019-01-18T20:57:21.456Z,13.47
2019-01-18T21:00:15.630Z,12.30
2019-01-18T21:03:34.888Z,13.20
2019-01-18T21:06:16.968Z,12.53
2019-01-18T21:09:10.996Z,12.77
2019-01-18T21:11:47.185Z,12.43
2019-01-18T21:14:23.393Z,12.17
2019-01-18T21:16:59.627Z,13.40
2019-01-18T21:19:41.661Z,13.63
2019-01-18T21:22:43.474Z,11.87
2019-01-18T21:25:49.756Z,12.30
2019-01-18T21:28:53.029Z,12.87
2019-01-18T21:32:02.414Z,14.07
2019-01-18T21:34:53.197Z,12.60
2019-01-18T21:37:32.326Z,14.70
2019-01-18T21:40:19.589Z,14.90
2019-01-18T21:43:19.676Z,14.07
2019-01-18T21:46:07.102Z,13.33
2019-01-18T21:49:05.943Z,13.40
2019-01-18T21:52:14.476Z,13.43
2019-01-18T21:55:16.375Z,12.50
2019-01-18T21:57:58.100Z,12.70
2019-01-18T22:00:48.329Z,14.07
2019-01-18T22:03:39.196Z,13.73
2019-01-18T22:06:32.598Z,12.50
2019-01-18T22:09:23.266Z,12.83
2019-01-18T22:12:20.671Z,13.00
2019-01-18T22:15:28.462Z,13.20
2019-01-18T22:18:30.007Z,13.87
2019-01-18T22:21:26.373Z,12.90
2019-01-18T22:24:02.735Z,13.07
2019-01-18T22:26:44.999Z,13.57
2019-01-18T22:29:35.937Z,12.93
2019-01-18T22:32:27.318Z,12.57
2019-01-18T22:35:30.329Z,14.03
2019-01-18T22:38:43.855Z,14.03
2019-01-18T22:41:31.808Z,15.00
2019-01-18T22:44:32.099Z,14.23
2019-01-18T22:47:13.995Z,13.27
2019-01-18T22:50:09.630Z,14.93
2019-01-18T22:53:03.625Z,15.40
2019-01-18T22:55:54.116Z,14.47
2019-01-18T22:58:33.016Z,15.17
2019-01-18T23:01:55.976Z,15.43
2019-01-18T23:04:55.479Z,15.10
2019-01-18T23:08:01.274Z,15.37
2019-01-18T23:10:49.518Z,15.77
2019-01-18T23:13:33.983Z,14.47
2019-01-18T23:16:29.646Z,15.57
2019-01-18T23:19:11.716Z,14.83
2019-01-18T23:22:21.472Z,14.47
2019-01-18T23:25:06.320Z,14.90
2019-01-18T23:27:57.410Z,13.97
2019-01-18T23:30:42.148Z,14.00
2019-01-18T23:33:42.469Z,13.63
2019-01-18T23:36:21.600Z,13.70
2019-01-18T23:39:15.659Z,13.30
2019-01-18T23:42:26.212Z,13.10
2019-01-18T23:45:07.933Z,12.60
2019-01-18T23:48:01.904Z,14.10
2019-01-18T23:50:38.121Z,13.50
2019-01-18T23:53:44.334Z,13.23
2019-01-18T23:56:19.403Z,13.63
2019-01-18T23:59:07.348Z,13.57
